sensor_id;sensor_type;location;lat;lon;timestamp;P1;durP1;ratioP1;P2;durP2;ratioP2
32236;SDS011;18726;44.732;10.550;2023-07-13T00:02:50;22.77;;;14.00;;
32236;SDS011;18726;44.732;10.550;2023-07-13T00:05:57;24.10;;;14.63;;
32236;SDS011;18726;44.732;10.550;2023-07-13T00:09:03;29.42;;;14.00;;
32236;SDS011;18726;44.732;10.550;2023-07-13T00:12:21;24.45;;;11.73;;
32236;SDS011;18726;44.732;10.550;2023-07-13T00:15:27;13.23;;;8.52;;
32236;SDS011;18726;44.732;10.550;2023-07-13T00:18:33;20.08;;;7.40;;
32236;SDS011;18726;44.732;10.550;2023-07-13T00:21:36;12.35;;;4.60;;
32236;SDS011;18726;44.732;10.550;2023-07-13T00:24:40;13.50;;;5.15;;
32236;SDS011;18726;44.732;10.550;2023-07-13T00:27:46;13.77;;;4.28;;
32236;SDS011;18726;44.732;10.550;2023-07-13T00:30:52;13.50;;;4.65;;
32236;SDS011;18726;44.732;10.550;2023-07-13T00:33:55;6.68;;;4.63;;
32236;SDS011;18726;44.732;10.550;2023-07-13T00:36:59;9.30;;;4.25;;
32236;SDS011;18726;44.732;10.550;2023-07-13T00:40:03;15.77;;;4.30;;
32236;SDS011;18726;44.732;10.550;2023-07-13T00:43:13;9.48;;;3.85;;
32236;SDS011;18726;44.732;10.550;2023-07-13T00:46:21;4.63;;;3.60;;
32236;SDS011;18726;44.732;10.550;2023-07-13T00:49:29;9.23;;;3.97;;
32236;SDS011;18726;44.732;10.550;2023-07-13T00:52:36;10.77;;;3.72;;
32236;SDS011;18726;44.732;10.550;2023-07-13T00:55:44;8.18;;;3.70;;
32236;SDS011;18726;44.732;10.550;2023-07-13T00:58:49;9.00;;;3.75;;
32236;SDS011;18726;44.732;10.550;2023-07-13T01:01:53;10.90;;;3.88;;
32236;SDS011;18726;44.732;10.550;2023-07-13T01:04:57;5.97;;;3.60;;
32236;SDS011;18726;44.732;10.550;2023-07-13T01:08:01;6.38;;;4.07;;
32236;SDS011;18726;44.732;10.550;2023-07-13T01:11:07;5.82;;;3.13;;
32236;SDS011;18726;44.732;10.550;2023-07-13T01:14:11;6.60;;;3.85;;
32236;SDS011;18726;44.732;10.550;2023-07-13T01:17:15;7.20;;;3.45;;
32236;SDS011;18726;44.732;10.550;2023-07-13T01:20:19;6.07;;;3.72;;
32236;SDS011;18726;44.732;10.550;2023-07-13T01:23:25;7.18;;;3.67;;
32236;SDS011;18726;44.732;10.550;2023-07-13T01:26:30;7.25;;;4.15;;
32236;SDS011;18726;44.732;10.550;2023-07-13T01:29:34;6.72;;;3.30;;
32236;SDS011;18726;44.732;10.550;2023-07-13T01:32:44;10.43;;;4.22;;
32236;SDS011;18726;44.732;10.550;2023-07-13T01:35:48;8.07;;;4.03;;
32236;SDS011;18726;44.732;10.550;2023-07-13T01:38:53;15.32;;;4.18;;
32236;SDS011;18726;44.732;10.550;2023-07-13T01:41:57;6.63;;;3.90;;
32236;SDS011;18726;44.732;10.550;2023-07-13T01:45:01;5.55;;;4.43;;
32236;SDS011;18726;44.732;10.550;2023-07-13T01:48:07;8.65;;;4.20;;
32236;SDS011;18726;44.732;10.550;2023-07-13T01:51:11;7.95;;;3.88;;
32236;SDS011;18726;44.732;10.550;2023-07-13T01:54:15;8.18;;;4.35;;
32236;SDS011;18726;44.732;10.550;2023-07-13T01:57:20;6.95;;;4.70;;
32236;SDS011;18726;44.732;10.550;2023-07-13T02:00:24;11.07;;;4.20;;
32236;SDS011;18726;44.732;10.550;2023-07-13T02:03:28;6.75;;;4.40;;
32236;SDS011;18726;44.732;10.550;2023-07-13T02:06:35;9.10;;;4.13;;
32236;SDS011;18726;44.732;10.550;2023-07-13T02:09:39;9.57;;;4.57;;
32236;SDS011;18726;44.732;10.550;2023-07-13T02:12:42;7.18;;;4.25;;
32236;SDS011;18726;44.732;10.550;2023-07-13T02:15:49;8.50;;;4.75;;
32236;SDS011;18726;44.732;10.550;2023-07-13T02:18:54;8.65;;;4.75;;
32236;SDS011;18726;44.732;10.550;2023-07-13T02:21:59;5.28;;;3.63;;
32236;SDS011;18726;44.732;10.550;2023-07-13T02:25:03;6.35;;;4.15;;
32236;SDS011;18726;44.732;10.550;2023-07-13T02:28:07;7.90;;;3.97;;
32236;SDS011;18726;44.732;10.550;2023-07-13T02:31:12;6.60;;;4.22;;
32236;SDS011;18726;44.732;10.550;2023-07-13T02:34:17;5.65;;;4.38;;
32236;SDS011;18726;44.732;10.550;2023-07-13T02:37:21;6.40;;;4.00;;
32236;SDS011;18726;44.732;10.550;2023-07-13T02:40:24;6.65;;;4.70;;
32236;SDS011;18726;44.732;10.550;2023-07-13T02:43:29;8.73;;;3.80;;
32236;SDS011;18726;44.732;10.550;2023-07-13T02:46:34;12.98;;;5.60;;
32236;SDS011;18726;44.732;10.550;2023-07-13T02:49:39;15.50;;;5.57;;
32236;SDS011;18726;44.732;10.550;2023-07-13T02:52:43;8.20;;;6.20;;
32236;SDS011;18726;44.732;10.550;2023-07-13T02:55:47;11.65;;;7.47;;
32236;SDS011;18726;44.732;10.550;2023-07-13T02:58:51;13.90;;;6.15;;
32236;SDS011;18726;44.732;10.550;2023-07-13T03:01:55;8.82;;;6.70;;
32236;SDS011;18726;44.732;10.550;2023-07-13T03:04:59;11.70;;;6.60;;
32236;SDS011;18726;44.732;10.550;2023-07-13T03:08:03;10.32;;;6.03;;
32236;SDS011;18726;44.732;10.550;2023-07-13T03:11:10;11.07;;;6.78;;
32236;SDS011;18726;44.732;10.550;2023-07-13T03:14:17;10.52;;;5.97;;
32236;SDS011;18726;44.732;10.550;2023-07-13T03:17:21;11.20;;;6.07;;
32236;SDS011;18726;44.732;10.550;2023-07-13T03:20:26;6.93;;;5.63;;
32236;SDS011;18726;44.732;10.550;2023-07-13T03:23:29;8.23;;;5.60;;
32236;SDS011;18726;44.732;10.550;2023-07-13T03:26:33;13.68;;;6.07;;
32236;SDS011;18726;44.732;10.550;2023-07-13T03:29:37;9.25;;;6.10;;
32236;SDS011;18726;44.732;10.550;2023-07-13T03:32:41;14.40;;;5.80;;
32236;SDS011;18726;44.732;10.550;2023-07-13T03:35:44;8.73;;;6.18;;
32236;SDS011;18726;44.732;10.550;2023-07-13T03:38:49;6.07;;;5.47;;
32236;SDS011;18726;44.732;10.550;2023-07-13T03:41:58;13.55;;;6.07;;
32236;SDS011;18726;44.732;10.550;2023-07-13T03:45:02;9.05;;;5.60;;
32236;SDS011;18726;44.732;10.550;2023-07-13T03:48:08;8.80;;;7.30;;
32236;SDS011;18726;44.732;10.550;2023-07-13T03:51:13;14.10;;;7.30;;
32236;SDS011;18726;44.732;10.550;2023-07-13T03:54:19;13.40;;;8.38;;
32236;SDS011;18726;44.732;10.550;2023-07-13T03:57:23;16.60;;;8.55;;
32236;SDS011;18726;44.732;10.550;2023-07-13T04:00:27;10.05;;;6.30;;
32236;SDS011;18726;44.732;10.550;2023-07-13T04:03:31;10.52;;;6.55;;
32236;SDS011;18726;44.732;10.550;2023-07-13T04:06:36;9.48;;;7.22;;
32236;SDS011;18726;44.732;10.550;2023-07-13T04:09:41;9.90;;;6.93;;
32236;SDS011;18726;44.732;10.550;2023-07-13T04:12:44;9.40;;;7.57;;
32236;SDS011;18726;44.732;10.550;2023-07-13T04:15:48;10.15;;;7.32;;
32236;SDS011;18726;44.732;10.550;2023-07-13T04:18:52;10.32;;;6.18;;
32236;SDS011;18726;44.732;10.550;2023-07-13T04:22:02;11.70;;;8.52;;
32236;SDS011;18726;44.732;10.550;2023-07-13T04:25:06;10.07;;;7.50;;
32236;SDS011;18726;44.732;10.550;2023-07-13T04:28:11;14.25;;;6.95;;
32236;SDS011;18726;44.732;10.550;2023-07-13T04:31:14;11.60;;;7.82;;
32236;SDS011;18726;44.732;10.550;2023-07-13T04:34:18;8.32;;;6.47;;
32236;SDS011;18726;44.732;10.550;2023-07-13T04:37:21;16.88;;;8.05;;
32236;SDS011;18726;44.732;10.550;2023-07-13T04:40:25;11.30;;;8.07;;
32236;SDS011;18726;44.732;10.550;2023-07-13T04:43:30;10.63;;;7.20;;
32236;SDS011;18726;44.732;10.550;2023-07-13T04:46:35;7.72;;;6.68;;
32236;SDS011;18726;44.732;10.550;2023-07-13T04:49:39;9.45;;;6.68;;
32236;SDS011;18726;44.732;10.550;2023-07-13T04:52:43;15.82;;;7.35;;
32236;SDS011;18726;44.732;10.550;2023-07-13T04:55:47;13.23;;;7.28;;
32236;SDS011;18726;44.732;10.550;2023-07-13T04:58:50;19.33;;;8.13;;
32236;SDS011;18726;44.732;10.550;2023-07-13T05:01:54;11.52;;;6.20;;
32236;SDS011;18726;44.732;10.550;2023-07-13T05:04:57;16.17;;;7.50;;
32236;SDS011;18726;44.732;10.550;2023-07-13T05:08:01;14.68;;;7.00;;
32236;SDS011;18726;44.732;10.550;2023-07-13T05:11:05;10.55;;;7.05;;
32236;SDS011;18726;44.732;10.550;2023-07-13T05:14:10;14.32;;;6.93;;
32236;SDS011;18726;44.732;10.550;2023-07-13T05:17:13;11.40;;;7.70;;
32236;SDS011;18726;44.732;10.550;2023-07-13T05:20:18;9.50;;;6.65;;
32236;SDS011;18726;44.732;10.550;2023-07-13T05:23:22;13.07;;;7.80;;
32236;SDS011;18726;44.732;10.550;2023-07-13T05:26:26;15.82;;;7.43;;
32236;SDS011;18726;44.732;10.550;2023-07-13T05:29:30;15.43;;;7.45;;
32236;SDS011;18726;44.732;10.550;2023-07-13T05:32:34;14.48;;;6.60;;
32236;SDS011;18726;44.732;10.550;2023-07-13T05:35:37;12.35;;;6.30;;
32236;SDS011;18726;44.732;10.550;2023-07-13T05:38:41;8.20;;;5.38;;
32236;SDS011;18726;44.732;10.550;2023-07-13T05:41:44;7.85;;;4.93;;
32236;SDS011;18726;44.732;10.550;2023-07-13T05:44:48;6.32;;;4.63;;
32236;SDS011;18726;44.732;10.550;2023-07-13T05:47:52;9.95;;;4.30;;
32236;SDS011;18726;44.732;10.550;2023-07-13T05:50:55;6.72;;;4.57;;
32236;SDS011;18726;44.732;10.550;2023-07-13T05:53:59;10.85;;;5.00;;
32236;SDS011;18726;44.732;10.550;2023-07-13T05:57:03;11.73;;;5.15;;
32236;SDS011;18726;44.732;10.550;2023-07-13T06:00:07;6.90;;;4.53;;
32236;SDS011;18726;44.732;10.550;2023-07-13T06:03:15;9.95;;;4.80;;
32236;SDS011;18726;44.732;10.550;2023-07-13T06:06:19;7.90;;;5.88;;
32236;SDS011;18726;44.732;10.550;2023-07-13T06:09:23;19.98;;;6.85;;
32236;SDS011;18726;44.732;10.550;2023-07-13T06:12:27;11.73;;;6.32;;
32236;SDS011;18726;44.732;10.550;2023-07-13T06:15:31;12.63;;;6.05;;
32236;SDS011;18726;44.732;10.550;2023-07-13T06:18:36;8.07;;;5.60;;
32236;SDS011;18726;44.732;10.550;2023-07-13T06:21:40;13.32;;;6.00;;
32236;SDS011;18726;44.732;10.550;2023-07-13T06:24:43;16.27;;;6.28;;
32236;SDS011;18726;44.732;10.550;2023-07-13T06:27:47;11.93;;;5.47;;
32236;SDS011;18726;44.732;10.550;2023-07-13T06:30:51;14.02;;;5.53;;
32236;SDS011;18726;44.732;10.550;2023-07-13T06:33:55;9.90;;;4.38;;
32236;SDS011;18726;44.732;10.550;2023-07-13T06:36:59;9.20;;;3.50;;
32236;SDS011;18726;44.732;10.550;2023-07-13T06:40:03;8.95;;;4.60;;
32236;SDS011;18726;44.732;10.550;2023-07-13T06:43:07;12.68;;;5.18;;
32236;SDS011;18726;44.732;10.550;2023-07-13T06:46:11;6.07;;;4.22;;
32236;SDS011;18726;44.732;10.550;2023-07-13T06:49:15;9.70;;;4.88;;
32236;SDS011;18726;44.732;10.550;2023-07-13T06:52:18;17.20;;;5.45;;
32236;SDS011;18726;44.732;10.550;2023-07-13T06:55:22;19.92;;;5.32;;
32236;SDS011;18726;44.732;10.550;2023-07-13T06:58:25;9.95;;;5.47;;
32236;SDS011;18726;44.732;10.550;2023-07-13T07:01:29;14.20;;;5.63;;
32236;SDS011;18726;44.732;10.550;2023-07-13T07:04:32;6.10;;;4.50;;
32236;SDS011;18726;44.732;10.550;2023-07-13T07:07:35;10.63;;;5.40;;
32236;SDS011;18726;44.732;10.550;2023-07-13T07:10:40;9.13;;;3.95;;
32236;SDS011;18726;44.732;10.550;2023-07-13T07:13:44;9.65;;;4.28;;
32236;SDS011;18726;44.732;10.550;2023-07-13T07:16:48;6.07;;;3.95;;
32236;SDS011;18726;44.732;10.550;2023-07-13T07:19:51;5.00;;;3.30;;
32236;SDS011;18726;44.732;10.550;2023-07-13T07:22:57;8.00;;;4.30;;
32236;SDS011;18726;44.732;10.550;2023-07-13T07:26:01;5.75;;;4.88;;
32236;SDS011;18726;44.732;10.550;2023-07-13T07:29:04;16.45;;;9.15;;
32236;SDS011;18726;44.732;10.550;2023-07-13T07:32:08;11.32;;;7.35;;
32236;SDS011;18726;44.732;10.550;2023-07-13T07:35:12;12.15;;;7.22;;
32236;SDS011;18726;44.732;10.550;2023-07-13T07:38:16;13.95;;;8.25;;
32236;SDS011;18726;44.732;10.550;2023-07-13T07:41:20;13.75;;;7.47;;
32236;SDS011;18726;44.732;10.550;2023-07-13T07:44:23;18.08;;;7.28;;
32236;SDS011;18726;44.732;10.550;2023-07-13T07:47:27;15.85;;;8.02;;
32236;SDS011;18726;44.732;10.550;2023-07-13T07:50:31;15.82;;;7.47;;
32236;SDS011;18726;44.732;10.550;2023-07-13T07:53:36;13.50;;;5.65;;
32236;SDS011;18726;44.732;10.550;2023-07-13T07:56:40;8.35;;;4.88;;
32236;SDS011;18726;44.732;10.550;2023-07-13T07:59:43;14.95;;;6.55;;
32236;SDS011;18726;44.732;10.550;2023-07-13T08:02:47;12.45;;;7.05;;
32236;SDS011;18726;44.732;10.550;2023-07-13T08:05:54;15.80;;;7.97;;
32236;SDS011;18726;44.732;10.550;2023-07-13T08:08:58;12.35;;;6.90;;
32236;SDS011;18726;44.732;10.550;2023-07-13T08:12:01;13.27;;;7.05;;
32236;SDS011;18726;44.732;10.550;2023-07-13T08:15:05;10.60;;;7.55;;
32236;SDS011;18726;44.732;10.550;2023-07-13T08:18:12;11.65;;;6.15;;
32236;SDS011;18726;44.732;10.550;2023-07-13T08:21:15;15.40;;;6.70;;
32236;SDS011;18726;44.732;10.550;2023-07-13T08:24:22;7.15;;;6.45;;
32236;SDS011;18726;44.732;10.550;2023-07-13T08:27:27;20.50;;;8.30;;
32236;SDS011;18726;44.732;10.550;2023-07-13T08:30:32;16.00;;;7.60;;
32236;SDS011;18726;44.732;10.550;2023-07-13T08:33:36;16.00;;;6.65;;
32236;SDS011;18726;44.732;10.550;2023-07-13T08:36:41;15.25;;;7.85;;
32236;SDS011;18726;44.732;10.550;2023-07-13T08:39:45;12.05;;;9.18;;
32236;SDS011;18726;44.732;10.550;2023-07-13T08:42:53;13.05;;;7.80;;
32236;SDS011;18726;44.732;10.550;2023-07-13T08:49:15;23.73;;;9.15;;
32236;SDS011;18726;44.732;10.550;2023-07-13T08:52:32;22.52;;;10.25;;
32236;SDS011;18726;44.732;10.550;2023-07-13T08:55:40;13.55;;;9.25;;
32236;SDS011;18726;44.732;10.550;2023-07-13T08:58:44;8.80;;;6.70;;
32236;SDS011;18726;44.732;10.550;2023-07-13T09:05:29;16.25;;;7.50;;
32236;SDS011;18726;44.732;10.550;2023-07-13T09:15:45;9.68;;;7.75;;
32236;SDS011;18726;44.732;10.550;2023-07-13T09:18:51;15.43;;;8.30;;
32236;SDS011;18726;44.732;10.550;2023-07-13T09:21:59;14.43;;;9.73;;
32236;SDS011;18726;44.732;10.550;2023-07-13T09:28:43;14.27;;;9.48;;
32236;SDS011;18726;44.732;10.550;2023-07-13T09:31:53;15.18;;;8.38;;
32236;SDS011;18726;44.732;10.550;2023-07-13T09:34:59;13.75;;;8.73;;
32236;SDS011;18726;44.732;10.550;2023-07-13T09:38:17;17.00;;;8.40;;
32236;SDS011;18726;44.732;10.550;2023-07-13T09:41:31;16.58;;;9.73;;
32236;SDS011;18726;44.732;10.550;2023-07-13T09:45:00;19.58;;;9.05;;
32236;SDS011;18726;44.732;10.550;2023-07-13T09:48:13;13.50;;;8.30;;
32236;SDS011;18726;44.732;10.550;2023-07-13T09:51:18;13.10;;;7.32;;
32236;SDS011;18726;44.732;10.550;2023-07-13T09:54:24;12.77;;;7.30;;
32236;SDS011;18726;44.732;10.550;2023-07-13T09:57:28;12.15;;;6.97;;
32236;SDS011;18726;44.732;10.550;2023-07-13T10:00:32;8.15;;;7.15;;
32236;SDS011;18726;44.732;10.550;2023-07-13T10:03:36;7.63;;;5.85;;
32236;SDS011;18726;44.732;10.550;2023-07-13T10:06:47;9.98;;;6.05;;
32236;SDS011;18726;44.732;10.550;2023-07-13T10:09:54;8.93;;;5.85;;
32236;SDS011;18726;44.732;10.550;2023-07-13T10:12:59;10.43;;;7.40;;
32236;SDS011;18726;44.732;10.550;2023-07-13T10:16:04;9.52;;;6.32;;
32236;SDS011;18726;44.732;10.550;2023-07-13T10:19:11;6.88;;;6.05;;
32236;SDS011;18726;44.732;10.550;2023-07-13T10:25:42;8.85;;;5.05;;
32236;SDS011;18726;44.732;10.550;2023-07-13T10:28:49;9.90;;;4.35;;
32236;SDS011;18726;44.732;10.550;2023-07-13T10:31:56;8.35;;;4.15;;
32236;SDS011;18726;44.732;10.550;2023-07-13T10:35:00;9.82;;;5.35;;
32236;SDS011;18726;44.732;10.550;2023-07-13T10:38:07;7.10;;;4.22;;
32236;SDS011;18726;44.732;10.550;2023-07-13T10:41:17;8.10;;;5.43;;
32236;SDS011;18726;44.732;10.550;2023-07-13T10:44:25;14.60;;;5.07;;
32236;SDS011;18726;44.732;10.550;2023-07-13T10:47:31;13.75;;;7.25;;
32236;SDS011;18726;44.732;10.550;2023-07-13T10:50:35;13.02;;;7.35;;
32236;SDS011;18726;44.732;10.550;2023-07-13T10:53:47;7.82;;;5.05;;
32236;SDS011;18726;44.732;10.550;2023-07-13T11:00:21;8.43;;;5.13;;
32236;SDS011;18726;44.732;10.550;2023-07-13T11:03:26;10.10;;;5.15;;
32236;SDS011;18726;44.732;10.550;2023-07-13T11:06:42;15.63;;;5.15;;
32236;SDS011;18726;44.732;10.550;2023-07-13T11:09:53;11.73;;;7.90;;
32236;SDS011;18726;44.732;10.550;2023-07-13T11:13:03;10.32;;;6.45;;
32236;SDS011;18726;44.732;10.550;2023-07-13T11:19:39;13.23;;;7.05;;
32236;SDS011;18726;44.732;10.550;2023-07-13T11:22:49;9.00;;;6.32;;
32236;SDS011;18726;44.732;10.550;2023-07-13T11:25:53;10.45;;;6.97;;
32236;SDS011;18726;44.732;10.550;2023-07-13T11:28:57;12.40;;;9.02;;
32236;SDS011;18726;44.732;10.550;2023-07-13T11:32:10;12.07;;;7.55;;
32236;SDS011;18726;44.732;10.550;2023-07-13T11:35:30;14.75;;;8.52;;
32236;SDS011;18726;44.732;10.550;2023-07-13T11:38:37;15.02;;;8.88;;
32236;SDS011;18726;44.732;10.550;2023-07-13T11:41:44;19.60;;;9.38;;
32236;SDS011;18726;44.732;10.550;2023-07-13T11:44:52;11.15;;;8.43;;
32236;SDS011;18726;44.732;10.550;2023-07-13T11:47:57;17.27;;;7.70;;
32236;SDS011;18726;44.732;10.550;2023-07-13T11:51:04;14.70;;;7.85;;
32236;SDS011;18726;44.732;10.550;2023-07-13T11:54:31;12.65;;;5.38;;
32236;SDS011;18726;44.732;10.550;2023-07-13T11:57:38;9.77;;;5.10;;
32236;SDS011;18726;44.732;10.550;2023-07-13T12:00:49;11.95;;;5.78;;
32236;SDS011;18726;44.732;10.550;2023-07-13T12:03:54;16.48;;;5.45;;
32236;SDS011;18726;44.732;10.550;2023-07-13T12:07:03;15.23;;;6.30;;
32236;SDS011;18726;44.732;10.550;2023-07-13T12:13:22;13.20;;;7.03;;
32236;SDS011;18726;44.732;10.550;2023-07-13T12:16:27;11.27;;;5.18;;
32236;SDS011;18726;44.732;10.550;2023-07-13T12:19:36;12.73;;;6.63;;
32236;SDS011;18726;44.732;10.550;2023-07-13T12:22:40;15.10;;;7.80;;
32236;SDS011;18726;44.732;10.550;2023-07-13T12:25:50;13.63;;;7.28;;
32236;SDS011;18726;44.732;10.550;2023-07-13T12:28:54;12.98;;;6.30;;
32236;SDS011;18726;44.732;10.550;2023-07-13T12:31:59;14.27;;;6.43;;
32236;SDS011;18726;44.732;10.550;2023-07-13T12:35:13;15.82;;;7.78;;
32236;SDS011;18726;44.732;10.550;2023-07-13T12:38:19;14.93;;;8.80;;
32236;SDS011;18726;44.732;10.550;2023-07-13T12:41:25;18.98;;;8.57;;
32236;SDS011;18726;44.732;10.550;2023-07-13T12:44:30;9.50;;;8.15;;
32236;SDS011;18726;44.732;10.550;2023-07-13T12:47:42;12.13;;;8.18;;
32236;SDS011;18726;44.732;10.550;2023-07-13T12:50:50;18.50;;;10.85;;
32236;SDS011;18726;44.732;10.550;2023-07-13T12:53:56;14.02;;;9.20;;
32236;SDS011;18726;44.732;10.550;2023-07-13T12:57:12;13.55;;;8.80;;
32236;SDS011;18726;44.732;10.550;2023-07-13T13:03:37;13.75;;;6.45;;
32236;SDS011;18726;44.732;10.550;2023-07-13T13:06:44;16.77;;;9.38;;
32236;SDS011;18726;44.732;10.550;2023-07-13T13:09:48;17.70;;;9.13;;
32236;SDS011;18726;44.732;10.550;2023-07-13T13:12:52;12.60;;;8.32;;
32236;SDS011;18726;44.732;10.550;2023-07-13T13:16:01;18.15;;;7.75;;
32236;SDS011;18726;44.732;10.550;2023-07-13T13:19:18;14.23;;;7.32;;
32236;SDS011;18726;44.732;10.550;2023-07-13T13:22:24;11.48;;;8.10;;
32236;SDS011;18726;44.732;10.550;2023-07-13T13:25:28;13.90;;;6.93;;
32236;SDS011;18726;44.732;10.550;2023-07-13T13:28:32;7.65;;;6.03;;
32236;SDS011;18726;44.732;10.550;2023-07-13T13:31:36;14.80;;;7.18;;
32236;SDS011;18726;44.732;10.550;2023-07-13T13:34:40;12.32;;;6.60;;
32236;SDS011;18726;44.732;10.550;2023-07-13T13:37:44;10.82;;;6.47;;
32236;SDS011;18726;44.732;10.550;2023-07-13T13:40:50;22.50;;;9.38;;
32236;SDS011;18726;44.732;10.550;2023-07-13T13:43:54;15.30;;;9.00;;
32236;SDS011;18726;44.732;10.550;2023-07-13T13:46:58;13.50;;;9.77;;
32236;SDS011;18726;44.732;10.550;2023-07-13T13:50:13;14.85;;;8.15;;
32236;SDS011;18726;44.732;10.550;2023-07-13T13:53:19;11.85;;;9.07;;
32236;SDS011;18726;44.732;10.550;2023-07-13T13:56:23;15.60;;;10.13;;
32236;SDS011;18726;44.732;10.550;2023-07-13T13:59:26;20.30;;;10.40;;
32236;SDS011;18726;44.732;10.550;2023-07-13T14:02:29;21.38;;;10.88;;
32236;SDS011;18726;44.732;10.550;2023-07-13T14:05:34;19.02;;;10.70;;
32236;SDS011;18726;44.732;10.550;2023-07-13T14:08:38;12.25;;;8.80;;
32236;SDS011;18726;44.732;10.550;2023-07-13T14:11:42;18.98;;;9.85;;
32236;SDS011;18726;44.732;10.550;2023-07-13T14:14:47;21.75;;;8.60;;
32236;SDS011;18726;44.732;10.550;2023-07-13T14:17:51;16.83;;;7.75;;
32236;SDS011;18726;44.732;10.550;2023-07-13T14:20:56;14.23;;;9.70;;
32236;SDS011;18726;44.732;10.550;2023-07-13T14:23:59;16.20;;;9.85;;
32236;SDS011;18726;44.732;10.550;2023-07-13T14:27:03;16.73;;;8.13;;
32236;SDS011;18726;44.732;10.550;2023-07-13T14:30:18;13.82;;;8.35;;
32236;SDS011;18726;44.732;10.550;2023-07-13T14:33:23;14.57;;;8.60;;
32236;SDS011;18726;44.732;10.550;2023-07-13T14:36:40;16.92;;;9.07;;
32236;SDS011;18726;44.732;10.550;2023-07-13T14:39:47;17.25;;;9.68;;
32236;SDS011;18726;44.732;10.550;2023-07-13T14:42:54;16.80;;;8.65;;
32236;SDS011;18726;44.732;10.550;2023-07-13T14:45:58;14.65;;;9.43;;
32236;SDS011;18726;44.732;10.550;2023-07-13T14:52:27;23.30;;;10.77;;
32236;SDS011;18726;44.732;10.550;2023-07-13T14:55:31;20.98;;;9.85;;
32236;SDS011;18726;44.732;10.550;2023-07-13T14:58:34;14.88;;;9.32;;
32236;SDS011;18726;44.732;10.550;2023-07-13T15:01:38;13.07;;;8.73;;
32236;SDS011;18726;44.732;10.550;2023-07-13T15:04:43;19.45;;;9.23;;
32236;SDS011;18726;44.732;10.550;2023-07-13T15:07:48;20.50;;;8.60;;
32236;SDS011;18726;44.732;10.550;2023-07-13T15:10:53;14.85;;;8.52;;
32236;SDS011;18726;44.732;10.550;2023-07-13T15:13:56;12.05;;;7.75;;
32236;SDS011;18726;44.732;10.550;2023-07-13T15:17:00;18.77;;;7.80;;
32236;SDS011;18726;44.732;10.550;2023-07-13T15:20:26;18.15;;;8.05;;
32236;SDS011;18726;44.732;10.550;2023-07-13T15:23:35;14.50;;;8.80;;
32236;SDS011;18726;44.732;10.550;2023-07-13T15:26:39;22.02;;;7.93;;
32236;SDS011;18726;44.732;10.550;2023-07-13T15:29:43;17.08;;;9.00;;
32236;SDS011;18726;44.732;10.550;2023-07-13T15:32:48;19.08;;;9.55;;
32236;SDS011;18726;44.732;10.550;2023-07-13T15:35:52;14.45;;;7.97;;
32236;SDS011;18726;44.732;10.550;2023-07-13T15:38:57;17.10;;;7.40;;
32236;SDS011;18726;44.732;10.550;2023-07-13T15:42:01;13.05;;;7.57;;
32236;SDS011;18726;44.732;10.550;2023-07-13T15:45:24;18.20;;;8.65;;
32236;SDS011;18726;44.732;10.550;2023-07-13T15:48:28;20.35;;;9.00;;
32236;SDS011;18726;44.732;10.550;2023-07-13T15:51:34;17.80;;;8.07;;
32236;SDS011;18726;44.732;10.550;2023-07-13T15:54:38;18.85;;;8.35;;
32236;SDS011;18726;44.732;10.550;2023-07-13T15:57:43;17.02;;;8.52;;
32236;SDS011;18726;44.732;10.550;2023-07-13T16:00:49;15.50;;;8.35;;
32236;SDS011;18726;44.732;10.550;2023-07-13T16:03:56;15.02;;;7.93;;
32236;SDS011;18726;44.732;10.550;2023-07-13T16:07:00;12.20;;;8.35;;
32236;SDS011;18726;44.732;10.550;2023-07-13T16:10:04;22.38;;;8.10;;
32236;SDS011;18726;44.732;10.550;2023-07-13T16:13:15;21.95;;;10.05;;
32236;SDS011;18726;44.732;10.550;2023-07-13T16:16:20;20.70;;;9.38;;
32236;SDS011;18726;44.732;10.550;2023-07-13T16:19:28;24.48;;;9.80;;
32236;SDS011;18726;44.732;10.550;2023-07-13T16:22:32;19.42;;;11.40;;
32236;SDS011;18726;44.732;10.550;2023-07-13T16:25:36;19.77;;;10.70;;
32236;SDS011;18726;44.732;10.550;2023-07-13T16:28:40;19.23;;;9.55;;
32236;SDS011;18726;44.732;10.550;2023-07-13T16:31:59;14.35;;;10.40;;
32236;SDS011;18726;44.732;10.550;2023-07-13T16:35:07;15.57;;;8.77;;
32236;SDS011;18726;44.732;10.550;2023-07-13T16:38:19;22.75;;;10.65;;
32236;SDS011;18726;44.732;10.550;2023-07-13T16:41:24;16.35;;;9.63;;
32236;SDS011;18726;44.732;10.550;2023-07-13T16:44:29;24.23;;;10.35;;
32236;SDS011;18726;44.732;10.550;2023-07-13T16:47:35;17.02;;;11.13;;
32236;SDS011;18726;44.732;10.550;2023-07-13T16:50:38;19.42;;;9.48;;
32236;SDS011;18726;44.732;10.550;2023-07-13T16:53:45;18.77;;;9.88;;
32236;SDS011;18726;44.732;10.550;2023-07-13T16:56:48;36.73;;;12.40;;
32236;SDS011;18726;44.732;10.550;2023-07-13T16:59:54;19.75;;;11.02;;
32236;SDS011;18726;44.732;10.550;2023-07-13T17:03:01;14.52;;;10.10;;
32236;SDS011;18726;44.732;10.550;2023-07-13T17:06:20;18.33;;;9.25;;
32236;SDS011;18726;44.732;10.550;2023-07-13T17:09:26;20.52;;;10.68;;
32236;SDS011;18726;44.732;10.550;2023-07-13T17:12:30;15.57;;;10.50;;
32236;SDS011;18726;44.732;10.550;2023-07-13T17:15:34;20.25;;;10.45;;
32236;SDS011;18726;44.732;10.550;2023-07-13T17:18:41;17.00;;;10.18;;
32236;SDS011;18726;44.732;10.550;2023-07-13T17:21:46;19.80;;;12.50;;
32236;SDS011;18726;44.732;10.550;2023-07-13T17:24:50;13.90;;;11.00;;
32236;SDS011;18726;44.732;10.550;2023-07-13T17:27:55;24.52;;;10.20;;
32236;SDS011;18726;44.732;10.550;2023-07-13T17:30:59;15.88;;;10.60;;
32236;SDS011;18726;44.732;10.550;2023-07-13T17:34:07;17.90;;;10.25;;
32236;SDS011;18726;44.732;10.550;2023-07-13T17:37:15;22.48;;;10.63;;
32236;SDS011;18726;44.732;10.550;2023-07-13T17:40:20;21.05;;;10.98;;
32236;SDS011;18726;44.732;10.550;2023-07-13T17:43:26;20.80;;;11.25;;
32236;SDS011;18726;44.732;10.550;2023-07-13T17:46:31;20.15;;;11.20;;
32236;SDS011;18726;44.732;10.550;2023-07-13T17:49:36;21.58;;;10.13;;
32236;SDS011;18726;44.732;10.550;2023-07-13T17:52:40;16.73;;;9.52;;
32236;SDS011;18726;44.732;10.550;2023-07-13T17:55:44;19.42;;;9.85;;
32236;SDS011;18726;44.732;10.550;2023-07-13T17:58:48;14.20;;;9.32;;
32236;SDS011;18726;44.732;10.550;2023-07-13T18:01:52;19.20;;;10.35;;
32236;SDS011;18726;44.732;10.550;2023-07-13T18:04:56;24.48;;;18.15;;
32236;SDS011;18726;44.732;10.550;2023-07-13T18:08:00;17.77;;;9.02;;
32236;SDS011;18726;44.732;10.550;2023-07-13T18:11:08;9.93;;;6.32;;
32236;SDS011;18726;44.732;10.550;2023-07-13T18:14:13;12.50;;;7.72;;
32236;SDS011;18726;44.732;10.550;2023-07-13T18:17:18;11.55;;;7.72;;
32236;SDS011;18726;44.732;10.550;2023-07-13T18:20:22;12.20;;;8.65;;
32236;SDS011;18726;44.732;10.550;2023-07-13T18:23:26;12.45;;;8.68;;
32236;SDS011;18726;44.732;10.550;2023-07-13T18:26:29;17.15;;;10.45;;
32236;SDS011;18726;44.732;10.550;2023-07-13T18:29:34;10.77;;;7.93;;
32236;SDS011;18726;44.732;10.550;2023-07-13T18:32:39;11.55;;;7.57;;
32236;SDS011;18726;44.732;10.550;2023-07-13T18:35:45;13.95;;;7.03;;
32236;SDS011;18726;44.732;10.550;2023-07-13T18:38:49;15.18;;;7.38;;
32236;SDS011;18726;44.732;10.550;2023-07-13T18:41:54;14.27;;;8.32;;
32236;SDS011;18726;44.732;10.550;2023-07-13T18:44:58;16.33;;;9.13;;
32236;SDS011;18726;44.732;10.550;2023-07-13T18:48:02;10.77;;;7.00;;